Accueil
METAR-TAF:

METAR-TAF

Aéroports :

Cedar City, Utah, États-Unis

latitude: 37-42-24N, longitude: 113-05-48W, altitude: 1715 m

Observation

Le bulletin a été fait il y a 1 heure et 44 minutes, à 22:53 UTC
Vent 4 kt de nord-ouest
Température 23°C
Humidité 23%
Pression 1023 hPa
Visibilité: 16.1 km
Ciel clair

METAR: KCDC 052253Z AUTO 32004KT 10SM CLR 23/01 A3022 RMK AO2 SLP179 T02280006

Heure: 18:37 (00:37 UTC)

Prévision

Le bulletin a été fait il y a 1 heure et 17 minutes, à 23:20 UTC
Prévision valable du 06 à 00 UTC au 06 à 24 UTC
Vent 5 kt de nord-ouest
Visibilité: 10 km
Quelques nuages à une hauteur de 8000 ft
A partir de 06 à 0400 UTC
Vent 4 kt de direction variable
Visibilité: 10 km
Ciel clair
A partir de 06 à 1900 UTC
Vent 6 kt de nord-est
Visibilité: 10 km
Quelques nuages à une hauteur de 10000 ft

TAF: KCDC 052320Z 0600/0624 32005KT P6SM FEW080 FM060400 VRB04KT P6SM SKC FM061900 04006KT P6SM FEW100

Observations et prévisions météorologiques de plus de 4000 aéroports (messages METAR et TAF).

Les stations disponibles sont représentées par des disques jaunes et rouges sur la carte.

Passer la souris dessus pour voir le nom de la station.

Cliquer dessus pour voir les observations et prévisions météorologiques.

Pour changer de carte: cliquez sur les boutons verts avec une croix noire pour zoomer, sur le bouton vert avec un tiret pour effectuer un zoom arrière, ou sur les flèches vertes pour les cartes adjacentes.


METAR-TAF: